createdAt,value
2019-03-19T00:00:53.834Z,95494.78
2019-03-19T00:03:22.472Z,95492.21
2019-03-19T00:05:51.332Z,95498.72
2019-03-19T00:08:19.935Z,95500.41
2019-03-19T00:10:48.780Z,95499.94
2019-03-19T00:13:17.621Z,95502.58
2019-03-19T00:15:46.325Z,95498.87
2019-03-19T00:18:15.153Z,95497.52
2019-03-19T00:20:44.014Z,95497.72
2019-03-19T00:23:12.614Z,95500.52
2019-03-19T00:25:41.226Z,95504.07
2019-03-19T00:28:09.887Z,95512.16
2019-03-19T00:30:38.746Z,95508.91
2019-03-19T00:33:07.418Z,95518.22
2019-03-19T00:35:36.012Z,95513.36
2019-03-19T00:38:04.941Z,95508.91
2019-03-19T00:40:33.575Z,95515.16
2019-03-19T00:43:02.471Z,95518.20
2019-03-19T00:45:31.076Z,95517.98
2019-03-19T00:47:59.700Z,95522.24
2019-03-19T00:50:28.294Z,95520.16
2019-03-19T00:52:57.140Z,95525.31
2019-03-19T00:55:26.208Z,95531.95
2019-03-19T00:57:54.908Z,95535.98
2019-03-19T01:00:23.833Z,95538.28
2019-03-19T01:02:52.734Z,95541.07
2019-03-19T01:05:21.568Z,95545.64
2019-03-19T01:07:50.656Z,95548.16
2019-03-19T01:10:19.362Z,95547.63
2019-03-19T01:12:47.995Z,95540.05
2019-03-19T01:15:16.923Z,95546.05
2019-03-19T01:17:45.792Z,95551.93
2019-03-19T01:20:14.533Z,95545.39
2019-03-19T01:22:43.530Z,95547.55
2019-03-19T01:25:12.140Z,95548.73
2019-03-19T01:27:41.072Z,95548.66
2019-03-19T01:30:10.407Z,95547.42
2019-03-19T01:32:39.012Z,95550.97
2019-03-19T01:35:07.747Z,95545.28
2019-03-19T01:37:37.608Z,95539.95
2019-03-19T01:40:06.525Z,95544.20
2019-03-19T01:42:35.133Z,95541.02
2019-03-19T01:45:03.871Z,95536.41
2019-03-19T01:47:32.458Z,95543.64
2019-03-19T01:50:01.082Z,95546.06
2019-03-19T01:52:29.946Z,95555.59
2019-03-19T01:54:58.529Z,95552.43
2019-03-19T01:57:27.370Z,95547.28
2019-03-19T01:59:55.958Z,95549.64
2019-03-19T02:02:24.550Z,95552.95
2019-03-19T02:04:53.128Z,95546.79
2019-03-19T02:07:21.990Z,95544.50
2019-03-19T02:09:50.847Z,95541.43
2019-03-19T02:12:19.707Z,95538.28
2019-03-19T02:14:48.540Z,95543.21
2019-03-19T02:17:17.601Z,95551.95
2019-03-19T02:19:46.215Z,95553.16
2019-03-19T02:22:15.041Z,95553.84
2019-03-19T02:24:43.630Z,95547.83
2019-03-19T02:27:12.481Z,95547.39
2019-03-19T02:29:41.069Z,95548.73
2019-03-19T02:32:09.928Z,95544.47
2019-03-19T02:34:38.827Z,95547.22
2019-03-19T02:37:07.457Z,95549.91
2019-03-19T02:39:36.027Z,95553.87
2019-03-19T02:42:04.719Z,95552.51
2019-03-19T02:44:33.569Z,95559.54
2019-03-19T02:47:02.395Z,95564.83
2019-03-19T02:49:31.002Z,95565.08
2019-03-19T02:51:59.596Z,95575.25
2019-03-19T02:54:28.419Z,95574.56
2019-03-19T02:56:57.013Z,95578.91
2019-03-19T02:59:25.842Z,95580.11
2019-03-19T03:01:54.425Z,95579.27
2019-03-19T03:04:23.058Z,95588.37
2019-03-19T03:06:52.133Z,95592.91
2019-03-19T03:09:20.745Z,95592.25
2019-03-19T03:11:49.580Z,95595.83
2019-03-19T03:14:18.445Z,95593.97
2019-03-19T03:16:47.047Z,95593.26
2019-03-19T03:19:15.913Z,95588.22
2019-03-19T03:21:44.503Z,95594.72
2019-03-19T03:24:13.383Z,95600.42
2019-03-19T03:26:48.039Z,95610.58
2019-03-19T03:29:12.331Z,95613.33
2019-03-19T03:31:40.912Z,95613.34
2019-03-19T03:34:09.542Z,95622.06
2019-03-19T03:36:38.142Z,95630.20
2019-03-19T03:39:08.156Z,95635.38
2019-03-19T03:41:37.205Z,95637.31
2019-03-19T03:44:06.004Z,95638.12
2019-03-19T03:46:34.606Z,95642.77
2019-03-19T03:49:03.556Z,95644.40
2019-03-19T03:51:32.421Z,95644.83
2019-03-19T03:54:01.032Z,95637.14
2019-03-19T03:56:29.655Z,95633.83
2019-03-19T03:59:01.092Z,95635.72
2019-03-19T04:01:29.465Z,95634.98
2019-03-19T04:03:58.089Z,95639.39
2019-03-19T04:06:26.675Z,95649.84
2019-03-19T04:08:55.320Z,95654.22
2019-03-19T04:11:24.242Z,95662.95
2019-03-19T04:13:53.126Z,95654.14
2019-03-19T04:16:21.961Z,95649.70
2019-03-19T04:18:50.807Z,95651.84
2019-03-19T04:21:19.434Z,95647.91
2019-03-19T04:23:48.106Z,95653.16
2019-03-19T04:26:16.710Z,95652.41
2019-03-19T04:28:45.589Z,95664.31
2019-03-19T04:31:14.420Z,95663.20
2019-03-19T04:33:43.994Z,95656.44
2019-03-19T04:36:12.814Z,95655.73
2019-03-19T04:38:41.688Z,95656.98
2019-03-19T04:41:10.511Z,95654.81
2019-03-19T04:43:39.111Z,95654.30
2019-03-19T04:46:07.754Z,95647.48
2019-03-19T04:48:36.367Z,95645.31
2019-03-19T04:51:04.970Z,95647.24
2019-03-19T04:53:33.589Z,95643.28
2019-03-19T04:56:02.429Z,95645.98
2019-03-19T04:58:31.276Z,95642.63
2019-03-19T05:00:59.856Z,95652.08
2019-03-19T05:03:28.503Z,95660.67
2019-03-19T05:05:59.525Z,95656.19
2019-03-19T05:08:28.171Z,95655.77
2019-03-19T05:10:57.239Z,95658.44
2019-03-19T05:13:25.864Z,95658.02
2019-03-19T05:15:54.437Z,95666.24
2019-03-19T05:18:23.076Z,95669.05
2019-03-19T05:20:51.951Z,95673.06
2019-03-19T05:23:20.552Z,95684.63
2019-03-19T05:25:49.152Z,95688.00
2019-03-19T05:28:17.769Z,95698.96
2019-03-19T05:30:46.610Z,95697.05
2019-03-19T05:33:15.436Z,95694.20
2019-03-19T05:35:44.083Z,95687.91
2019-03-19T05:38:12.915Z,95693.13
2019-03-19T05:40:41.549Z,95694.23
2019-03-19T05:43:10.171Z,95692.86
2019-03-19T05:45:38.770Z,95691.95
2019-03-19T05:48:07.375Z,95691.16
2019-03-19T05:50:36.501Z,95691.11
2019-03-19T05:53:05.165Z,95697.24
2019-03-19T05:55:33.776Z,95698.97
2019-03-19T05:58:02.396Z,95707.28
2019-03-19T06:00:32.137Z,95709.01
2019-03-19T06:03:01.112Z,95713.61
2019-03-19T06:05:29.709Z,95712.39
2019-03-19T06:07:58.331Z,95724.92
2019-03-19T06:10:26.971Z,95722.78
2019-03-19T06:12:55.830Z,95726.56
2019-03-19T06:15:24.438Z,95723.56
2019-03-19T06:17:53.035Z,95726.70
2019-03-19T06:20:21.724Z,95716.33
2019-03-19T06:22:50.579Z,95718.34
2019-03-19T06:25:19.209Z,95723.46
2019-03-19T06:27:47.791Z,95727.06
2019-03-19T06:30:17.508Z,95728.56
2019-03-19T06:32:46.180Z,95734.23
2019-03-19T06:35:14.777Z,95727.91
2019-03-19T06:37:43.464Z,95730.41
2019-03-19T06:40:13.056Z,95737.39
2019-03-19T06:42:41.915Z,95745.92
2019-03-19T06:45:12.193Z,95745.06
2019-03-19T06:47:40.810Z,95741.37
2019-03-19T06:50:10.453Z,95749.44
2019-03-19T06:52:39.132Z,95749.98
2019-03-19T06:55:09.288Z,95755.91
2019-03-19T06:57:39.425Z,95751.51
2019-03-19T07:00:11.352Z,95751.28
2019-03-19T07:02:40.218Z,95753.83
2019-03-19T07:05:09.159Z,95757.41
2019-03-19T07:07:38.261Z,95769.00
2019-03-19T07:10:07.203Z,95771.58
2019-03-19T07:12:36.111Z,95778.40
2019-03-19T07:15:05.686Z,95784.51
2019-03-19T07:17:34.540Z,95796.55
2019-03-19T07:20:03.480Z,95789.06
2019-03-19T07:22:32.096Z,95795.04
2019-03-19T07:25:00.700Z,95798.45
2019-03-19T07:27:29.399Z,95806.45
2019-03-19T07:29:58.281Z,95800.83
2019-03-19T07:32:27.345Z,95805.84
2019-03-19T07:34:56.193Z,95800.11
2019-03-19T07:37:25.040Z,95806.83
2019-03-19T07:39:53.851Z,95803.72
2019-03-19T07:42:22.730Z,95805.02
2019-03-19T07:44:51.578Z,95814.84
2019-03-19T07:47:20.175Z,95827.33
2019-03-19T07:49:49.021Z,95826.31
2019-03-19T07:52:17.872Z,95833.87
2019-03-19T07:54:46.486Z,95829.41
2019-03-19T07:57:15.088Z,95835.08
2019-03-19T07:59:43.728Z,95833.00
2019-03-19T08:02:12.587Z,95837.26
2019-03-19T08:04:41.174Z,95844.58
2019-03-19T08:07:09.821Z,95836.16
2019-03-19T08:09:38.760Z,95842.63
2019-03-19T08:12:07.447Z,95847.96
2019-03-19T08:14:36.531Z,95841.34
2019-03-19T08:17:05.227Z,95845.92
2019-03-19T08:19:34.082Z,95840.28
2019-03-19T08:22:02.723Z,95846.52
2019-03-19T08:24:31.342Z,95846.86
2019-03-19T08:27:00.470Z,95862.36
2019-03-19T08:29:29.119Z,95869.69
2019-03-19T08:31:57.744Z,95868.13
2019-03-19T08:34:26.655Z,95873.13
2019-03-19T08:36:55.268Z,95873.96
2019-03-19T08:39:23.901Z,95871.30
2019-03-19T08:41:52.500Z,95884.55
2019-03-19T08:44:27.743Z,95877.64
2019-03-19T08:46:51.704Z,95884.64
2019-03-19T08:49:22.287Z,95881.27
2019-03-19T08:51:51.099Z,95878.34
2019-03-19T08:54:19.695Z,95875.64
2019-03-19T08:56:48.552Z,95881.38
2019-03-19T08:59:17.246Z,95884.42
2019-03-19T09:01:47.408Z,95892.20
2019-03-19T09:04:16.302Z,95892.55
2019-03-19T09:06:44.910Z,95897.25
2019-03-19T09:09:14.006Z,95899.92
2019-03-19T09:11:42.842Z,95891.17
2019-03-19T09:14:11.447Z,95887.80
2019-03-19T09:16:40.080Z,95893.52
2019-03-19T09:19:08.649Z,95887.65
2019-03-19T09:21:37.291Z,95896.84
2019-03-19T09:24:06.159Z,95898.90
2019-03-19T09:26:35.041Z,95894.86
2019-03-19T09:29:03.810Z,95886.72
2019-03-19T09:31:32.673Z,95893.58
2019-03-19T09:34:01.252Z,95906.33
2019-03-19T09:36:29.843Z,95906.60
2019-03-19T09:38:58.435Z,95914.92
2019-03-19T09:41:27.014Z,95917.41
2019-03-19T09:43:55.610Z,95909.39
2019-03-19T09:46:24.185Z,95903.58
2019-03-19T09:48:52.836Z,95903.58
2019-03-19T09:51:21.664Z,95905.92
2019-03-19T09:53:50.360Z,95903.96
2019-03-19T09:56:18.969Z,95905.68
2019-03-19T09:58:47.795Z,95912.31
2019-03-19T10:01:16.675Z,95910.02
2019-03-19T10:03:45.537Z,95914.98
2019-03-19T10:06:14.663Z,95914.98
2019-03-19T10:08:43.555Z,95902.48
2019-03-19T10:11:12.141Z,95902.48
2019-03-19T10:13:40.996Z,95904.91
2019-03-19T10:16:09.628Z,95921.86
2019-03-19T10:18:38.705Z,95923.52
2019-03-19T10:21:07.325Z,95923.52
2019-03-19T10:23:36.181Z,95911.20
2019-03-19T10:26:04.933Z,95914.36
2019-03-19T10:28:33.556Z,95913.08
2019-03-19T10:31:02.406Z,95913.08
2019-03-19T10:33:31.223Z,95934.83
2019-03-19T10:35:59.845Z,95926.32
2019-03-19T10:38:28.464Z,95926.32
2019-03-19T10:40:57.056Z,95920.59
2019-03-19T10:43:25.663Z,95938.91
2019-03-19T10:45:54.298Z,95938.91
2019-03-19T10:48:22.882Z,95936.42
2019-03-19T10:50:51.725Z,95926.70
2019-03-19T10:53:20.826Z,95926.70
2019-03-19T10:55:49.664Z,95924.98
2019-03-19T10:58:18.513Z,95924.98
2019-03-19T11:00:47.097Z,95926.09
2019-03-19T11:03:15.758Z,95926.09
2019-03-19T11:05:44.371Z,95933.66
2019-03-19T11:08:12.955Z,95933.36
2019-03-19T11:10:41.556Z,95936.25
2019-03-19T11:13:10.403Z,95936.45
2019-03-19T11:15:39.020Z,95944.59
2019-03-19T11:18:07.943Z,95948.73
2019-03-19T11:20:36.616Z,95948.14
2019-03-19T11:23:05.233Z,95959.64
2019-03-19T11:25:33.825Z,95956.63
2019-03-19T11:28:02.501Z,95959.60
2019-03-19T11:30:31.168Z,95954.41
2019-03-19T11:32:59.803Z,95951.52
2019-03-19T11:35:29.041Z,95956.64
2019-03-19T11:37:57.752Z,95958.61
2019-03-19T11:40:27.494Z,95960.52
2019-03-19T11:42:56.076Z,95968.20
2019-03-19T11:45:25.272Z,95948.45
2019-03-19T11:47:53.932Z,95965.77
2019-03-19T11:50:22.975Z,95970.03
2019-03-19T11:52:51.992Z,95970.70
2019-03-19T11:55:20.832Z,95966.63
2019-03-19T11:57:49.461Z,95966.63
2019-03-19T12:00:30.051Z,95971.47
2019-03-19T12:02:58.761Z,95970.64
2019-03-19T12:05:27.675Z,95970.64
2019-03-19T12:07:56.547Z,95969.30
2019-03-19T12:10:25.189Z,95969.53
2019-03-19T12:12:53.783Z,95969.59
2019-03-19T12:15:22.366Z,95955.03
2019-03-19T12:17:50.985Z,95955.03
2019-03-19T12:20:20.918Z,95958.60
2019-03-19T12:22:49.631Z,95959.47
2019-03-19T12:25:18.467Z,95957.39
2019-03-19T12:27:47.189Z,95964.48
2019-03-19T12:30:22.323Z,95956.44
2019-03-19T12:32:46.419Z,95968.20
2019-03-19T12:35:15.561Z,95964.16
2019-03-19T12:37:44.415Z,95948.25
2019-03-19T12:40:13.749Z,95952.14
2019-03-19T12:42:42.609Z,95950.69
2019-03-19T12:45:12.790Z,95949.21
2019-03-19T12:47:41.398Z,95943.98
2019-03-19T12:50:11.889Z,95951.31
2019-03-19T12:52:40.498Z,95948.38
2019-03-19T12:55:09.221Z,95947.45
2019-03-19T12:57:37.847Z,95947.97
2019-03-19T13:00:10.017Z,95945.58
2019-03-19T13:02:38.848Z,95943.20
2019-03-19T13:05:07.844Z,95941.66
2019-03-19T13:07:39.425Z,95938.41
2019-03-19T13:10:09.957Z,95933.58
2019-03-19T13:12:38.591Z,95935.50
2019-03-19T13:15:07.548Z,95930.48
2019-03-19T13:17:36.449Z,95940.13
2019-03-19T13:20:05.779Z,95936.86
2019-03-19T13:22:34.351Z,95947.30
2019-03-19T13:25:03.236Z,95947.00
2019-03-19T13:27:32.059Z,95948.93
2019-03-19T13:30:00.663Z,95948.93
2019-03-19T13:32:29.241Z,95951.89
2019-03-19T13:34:57.870Z,95950.42
2019-03-19T13:37:26.477Z,95950.42
2019-03-19T13:39:55.307Z,95939.47
2019-03-19T13:42:23.908Z,95941.48
2019-03-19T13:44:52.738Z,95952.23
2019-03-19T13:47:21.367Z,95953.17
2019-03-19T13:49:49.961Z,95951.67
2019-03-19T13:52:18.831Z,95951.67
2019-03-19T13:54:47.412Z,95959.74
2019-03-19T13:57:16.284Z,95958.30
2019-03-19T13:59:44.873Z,95960.48
2019-03-19T14:02:13.476Z,95964.42
2019-03-19T14:04:42.295Z,95964.35
2019-03-19T14:07:11.180Z,95951.41
2019-03-19T14:09:40.235Z,95951.41
2019-03-19T14:12:08.841Z,95956.03
2019-03-19T14:14:38.136Z,95953.61
2019-03-19T14:17:06.987Z,95963.55
2019-03-19T14:19:35.576Z,95960.23
2019-03-19T14:22:04.252Z,95957.41
2019-03-19T14:24:32.905Z,95962.23
2019-03-19T14:27:01.499Z,95962.05
2019-03-19T14:29:30.443Z,95952.25
2019-03-19T14:31:59.026Z,95960.91
2019-03-19T14:34:27.894Z,95955.02
2019-03-19T14:36:56.968Z,95960.16
2019-03-19T14:39:25.577Z,95956.28
2019-03-19T14:41:54.152Z,95958.01
2019-03-19T14:44:22.772Z,95955.33
2019-03-19T14:46:51.455Z,95957.69
2019-03-19T14:49:20.122Z,95959.80
2019-03-19T14:51:48.714Z,95961.66
2019-03-19T14:54:17.418Z,95960.69
2019-03-19T14:56:46.030Z,95961.00
2019-03-19T14:59:14.621Z,95964.37
2019-03-19T15:01:43.487Z,95969.22
2019-03-19T15:04:12.088Z,95964.45
2019-03-19T15:06:40.979Z,95968.05
2019-03-19T15:09:09.604Z,95970.33
2019-03-19T15:11:38.289Z,95965.33
2019-03-19T15:14:06.897Z,95969.13
2019-03-19T15:16:35.516Z,95969.67
2019-03-19T15:19:04.225Z,95977.11
2019-03-19T15:21:33.051Z,95965.53
2019-03-19T15:24:01.636Z,95975.58
2019-03-19T15:26:30.484Z,95982.23
2019-03-19T15:28:59.093Z,95985.23
2019-03-19T15:31:30.108Z,95982.94
2019-03-19T15:33:58.227Z,95980.27
2019-03-19T15:36:27.058Z,95981.24
2019-03-19T15:38:55.882Z,95981.24
2019-03-19T15:41:24.462Z,95978.77
2019-03-19T15:43:53.103Z,95989.07
2019-03-19T15:46:21.953Z,95990.76
2019-03-19T15:48:50.537Z,95995.14
2019-03-19T15:51:19.174Z,95995.14
2019-03-19T15:53:47.785Z,95992.81
2019-03-19T15:56:16.464Z,95992.81
2019-03-19T15:58:45.069Z,95993.89
2019-03-19T16:01:16.941Z,95993.89
2019-03-19T16:03:44.769Z,95989.92
2019-03-19T16:06:13.400Z,95996.78
2019-03-19T16:08:41.994Z,95996.78
2019-03-19T16:11:10.615Z,96008.38
2019-03-19T16:13:39.444Z,96007.20
2019-03-19T16:16:08.617Z,96003.31
2019-03-19T16:18:37.230Z,96003.31
2019-03-19T16:21:06.081Z,96013.45
2019-03-19T16:23:34.963Z,96017.35
2019-03-19T16:26:03.904Z,96009.27
2019-03-19T16:28:32.738Z,96018.12
2019-03-19T16:31:01.901Z,96025.58
2019-03-19T16:33:30.489Z,96026.59
2019-03-19T16:35:59.189Z,96027.66
2019-03-19T16:38:27.777Z,96026.48
2019-03-19T16:40:56.628Z,96033.34
2019-03-19T16:43:25.533Z,96035.36
2019-03-19T16:45:54.390Z,96038.15
2019-03-19T16:48:22.969Z,96043.77
2019-03-19T16:50:51.591Z,96050.45
2019-03-19T16:53:20.439Z,96052.84
2019-03-19T16:55:49.030Z,96050.47
2019-03-19T16:58:17.608Z,96047.72
2019-03-19T17:00:46.334Z,96058.47
2019-03-19T17:03:14.917Z,96048.38
2019-03-19T17:05:43.915Z,96062.75
2019-03-19T17:08:12.520Z,96061.50
2019-03-19T17:10:41.111Z,96059.73
2019-03-19T17:13:10.604Z,96072.48
2019-03-19T17:15:39.517Z,96069.64
2019-03-19T17:18:08.224Z,96073.75
2019-03-19T17:20:37.043Z,96078.71
2019-03-19T17:23:05.695Z,96083.09
2019-03-19T17:25:34.321Z,96084.94
2019-03-19T17:28:03.982Z,96088.59
2019-03-19T17:30:32.578Z,96092.30
2019-03-19T17:33:01.400Z,96093.70
2019-03-19T17:35:30.460Z,96093.92
2019-03-19T17:37:59.068Z,96094.30
2019-03-19T17:40:28.134Z,96093.58
2019-03-19T17:42:56.741Z,96098.37
2019-03-19T17:45:25.352Z,96103.20
2019-03-19T17:47:54.202Z,96105.34
2019-03-19T17:50:22.857Z,96112.69
2019-03-19T17:52:51.582Z,96112.75
2019-03-19T17:55:20.268Z,96115.00
2019-03-19T17:57:48.905Z,96113.16
2019-03-19T18:00:21.377Z,96113.16
2019-03-19T18:02:49.990Z,96112.70
2019-03-19T18:05:18.702Z,96117.44
2019-03-19T18:07:47.298Z,96117.35
2019-03-19T18:10:16.439Z,96120.55
2019-03-19T18:12:45.280Z,96121.69
2019-03-19T18:15:14.505Z,96124.39
2019-03-19T18:17:43.156Z,96129.22
2019-03-19T18:20:11.815Z,96136.26
2019-03-19T18:22:40.415Z,96132.30
2019-03-19T18:25:09.309Z,96133.38
2019-03-19T18:27:37.987Z,96135.41
2019-03-19T18:30:07.647Z,96130.08
2019-03-19T18:32:36.254Z,96132.90
2019-03-19T18:35:05.263Z,96138.59
2019-03-19T18:37:33.882Z,96138.97
2019-03-19T18:40:02.708Z,96137.63
2019-03-19T18:42:31.529Z,96148.52
2019-03-19T18:45:00.431Z,96144.19
2019-03-19T18:47:28.973Z,96147.27
2019-03-19T18:49:57.940Z,96152.72
2019-03-19T18:52:27.284Z,96157.53
2019-03-19T18:54:55.915Z,96154.52
2019-03-19T18:57:24.818Z,96150.00
2019-03-19T18:59:53.446Z,96152.87
2019-03-19T19:02:22.089Z,96152.47
2019-03-19T19:04:50.697Z,96160.27
2019-03-19T19:07:19.810Z,96161.59
2019-03-19T19:09:48.442Z,96170.45
2019-03-19T19:12:17.061Z,96169.80
2019-03-19T19:14:45.979Z,96169.83
2019-03-19T19:17:14.583Z,96174.61
2019-03-19T19:19:43.188Z,96181.51
2019-03-19T19:22:11.862Z,96182.84
2019-03-19T19:24:40.538Z,96181.86
2019-03-19T19:27:09.408Z,96187.83
2019-03-19T19:29:38.460Z,96191.80
2019-03-19T19:32:07.284Z,96184.59
2019-03-19T19:34:35.877Z,96190.63
2019-03-19T19:37:05.200Z,96188.62
2019-03-19T19:39:34.129Z,96190.86
2019-03-19T19:42:02.982Z,96199.78
2019-03-19T19:44:31.791Z,96199.40
2019-03-19T19:47:00.626Z,96200.34
2019-03-19T19:49:29.483Z,96209.05
2019-03-19T19:51:58.337Z,96213.53
2019-03-19T19:54:26.939Z,96212.24
2019-03-19T19:56:55.770Z,96211.78
2019-03-19T19:59:25.016Z,96214.65
2019-03-19T20:01:53.599Z,96221.27
2019-03-19T20:04:22.448Z,96221.67
2019-03-19T20:06:51.348Z,96224.17
2019-03-19T20:09:19.943Z,96220.67
2019-03-19T20:11:48.694Z,96224.59
2019-03-19T20:14:17.291Z,96226.86
2019-03-19T20:16:46.015Z,96229.91
2019-03-19T20:19:14.635Z,96231.84
2019-03-19T20:21:43.242Z,96231.20
2019-03-19T20:24:11.891Z,96238.63
2019-03-19T20:26:40.513Z,96239.70
2019-03-19T20:29:09.677Z,96238.95
2019-03-19T20:31:38.595Z,96243.03
2019-03-19T20:34:07.169Z,96242.26
2019-03-19T20:36:35.785Z,96239.95
2019-03-19T20:39:06.967Z,96244.75
2019-03-19T20:41:35.760Z,96248.80
2019-03-19T20:44:04.520Z,96245.42
2019-03-19T20:46:33.111Z,96252.14
2019-03-19T20:49:01.704Z,96258.31
2019-03-19T20:51:30.590Z,96259.41
2019-03-19T20:53:59.184Z,96260.91
2019-03-19T20:56:27.822Z,96261.36
2019-03-19T20:58:56.639Z,96263.44
2019-03-19T21:01:25.285Z,96264.55
2019-03-19T21:03:53.973Z,96268.13
2019-03-19T21:06:23.700Z,96275.59
2019-03-19T21:08:52.307Z,96275.27
2019-03-19T21:11:20.913Z,96273.72
2019-03-19T21:13:49.521Z,96279.76
2019-03-19T21:16:18.231Z,96278.95
2019-03-19T21:18:46.813Z,96278.30
2019-03-19T21:21:16.115Z,96285.36
2019-03-19T21:23:44.711Z,96298.58
2019-03-19T21:26:13.884Z,96291.25
2019-03-19T21:28:42.485Z,96295.71
2019-03-19T21:31:12.228Z,96290.39
2019-03-19T21:33:50.862Z,96293.66
2019-03-19T21:36:11.497Z,96296.81
2019-03-19T21:38:40.050Z,96294.14
2019-03-19T21:41:08.698Z,96296.25
2019-03-19T21:43:37.470Z,96296.20
2019-03-19T21:46:07.239Z,96296.23
2019-03-19T21:48:35.840Z,96295.93
2019-03-19T21:51:04.450Z,96298.61
2019-03-19T21:53:33.492Z,96300.31
2019-03-19T21:56:02.179Z,96304.78
2019-03-19T21:58:30.763Z,96302.01
2019-03-19T22:00:59.445Z,96308.03
2019-03-19T22:03:28.259Z,96302.11
2019-03-19T22:05:57.118Z,96307.34
2019-03-19T22:08:25.973Z,96314.21
2019-03-19T22:10:55.091Z,96319.50
2019-03-19T22:13:23.679Z,96316.69
2019-03-19T22:15:52.276Z,96316.69
2019-03-19T22:18:21.103Z,96329.05
2019-03-19T22:20:49.701Z,96320.33
2019-03-19T22:23:18.290Z,96326.52
2019-03-19T22:25:47.118Z,96320.32
2019-03-19T22:28:15.953Z,96322.97
2019-03-19T22:30:44.575Z,96325.84
2019-03-19T22:33:13.201Z,96324.33
2019-03-19T22:35:41.783Z,96323.25
2019-03-19T22:38:10.408Z,96316.75
2019-03-19T22:40:38.995Z,96317.41
2019-03-19T22:43:07.835Z,96312.59
2019-03-19T22:45:36.432Z,96311.39
2019-03-19T22:48:05.042Z,96310.64
2019-03-19T22:50:33.630Z,96312.28
2019-03-19T22:53:02.526Z,96313.42
2019-03-19T22:55:31.390Z,96310.94
2019-03-19T22:57:59.985Z,96316.98
2019-03-19T23:00:42.246Z,96316.88
2019-03-19T23:03:10.868Z,96319.17
2019-03-19T23:05:39.762Z,96309.52
2019-03-19T23:08:08.424Z,96310.31
2019-03-19T23:10:37.406Z,96313.01
2019-03-19T23:13:06.045Z,96311.70
2019-03-19T23:15:35.007Z,96315.73
2019-03-19T23:18:03.786Z,96314.71
2019-03-19T23:20:32.427Z,96313.31
2019-03-19T23:23:01.299Z,96315.14
2019-03-19T23:25:29.990Z,96315.91
2019-03-19T23:27:58.625Z,96314.34
2019-03-19T23:30:27.474Z,96316.42
2019-03-19T23:32:56.123Z,96316.84
2019-03-19T23:35:24.951Z,96319.87
2019-03-19T23:37:53.816Z,96312.48
2019-03-19T23:40:22.451Z,96317.27
2019-03-19T23:42:51.568Z,96309.03
2019-03-19T23:45:20.415Z,96308.83
2019-03-19T23:47:48.995Z,96310.55
2019-03-19T23:50:17.737Z,96312.81
2019-03-19T23:52:46.386Z,96312.66
2019-03-19T23:55:14.981Z,96319.92
2019-03-19T23:57:43.904Z,96323.70
